This is the latest recevied weather packets stored in our database for station/object W0DP-11. If no packets are shown the sender has not sent any weather packets the latest 10 day(s).
| Time | Temp. | Humidity | Pressure | Rain* | Wind** | Luminosity | Snow |
|---|---|---|---|---|---|---|---|
| 1777681817 | 7.22° C | 46% | 1016.4 hPa | 0 mm | - | - | - |
| 1777679417 | 7.78° C | 42% | 1016.4 hPa | 0 mm | - | - | - |
| 1777677017 | 8.89° C | 45% | 1016.3 hPa | 0 mm | - | - | - |
| 1777675817 | 8.33° C | 39% | 1016.3 hPa | 0 mm | - | - | - |
| 1777672817 | 8.33° C | 45% | 1016.5 hPa | 0 mm | - | - | - |
| 1777671017 | 7.78° C | 44% | 1016.6 hPa | 0 mm | - | - | - |
| 1777669817 | 7.78° C | 49% | 1016.7 hPa | 0 mm | - | - | - |
| 1777668617 | 7.78° C | 45% | 1016.9 hPa | 0 mm | - | - | - |
| 1777668016 | 7.22° C | 47% | 1016.9 hPa | 0 mm | - | - | - |
| 1777666816 | 7.78° C | 48% | 1017.1 hPa | 0 mm | - | - | - |
| 1777666216 | 7.22° C | 46% | 1017.2 hPa | 0 mm | - | - | - |
| 1777665016 | 7.22° C | 50% | 1017.4 hPa | 0 mm | - | - | - |
| 1777664416 | 7.22° C | 46% | 1017.4 hPa | 0 mm | - | - | - |
| 1777660216 | 6.67° C | 50% | 1017.8 hPa | 0 mm | - | - | - |
| 1777651216 | 3.89° C | 60% | 1018.5 hPa | 0 mm | - | - | - |
| 1777650016 | 3.89° C | 62% | 1018.7 hPa | 0 mm | - | - | - |
| 1777648816 | 3.33° C | 64% | 1018.6 hPa | 0 mm | - | - | - |
| 1777646416 | 2.78° C | 68% | 1018.7 hPa | 0 mm | - | - | - |
| 1777641017 | -0.56° C | 81% | 1018.6 hPa | 0 mm | - | - | - |
| 1777640417 | -0.56° C | 83% | 1018.5 hPa | 0 mm | - | - | - |
| 1777639817 | -1.11° C | 87% | 1018.5 hPa | 0 mm | - | - | - |
| 1777638017 | -2.22° C | 93% | 1018.2 hPa | 0 mm | - | - | - |
| 1777637417 | -2.78° C | 92% | 1018.1 hPa | 0 mm | - | - | - |
| 1777636817 | -3.33° C | 93% | 1018 hPa | 0 mm | - | - | - |
| 1777635617 | -2.22° C | 95% | 1017.9 hPa | 0 mm | - | - | - |
* Rain latest hour (hover to see other rain measurements)
** Current wind speed in m/s (hover to see current wind gust speed)